createdAt,value
2023-01-21T00:00:09.835Z,-0.01
2023-01-21T00:05:11.437Z,0.05
2023-01-21T00:10:13.079Z,0.16
2023-01-21T00:15:15.121Z,0.10
2023-01-21T00:20:17.265Z,-0.10
2023-01-21T00:25:18.993Z,-0.14
2023-01-21T00:30:20.638Z,-0.04
2023-01-21T00:35:22.248Z,0.04
2023-01-21T00:40:24.189Z,0.05
2023-01-21T00:45:25.844Z,-0.35
2023-01-21T00:50:27.440Z,-0.28
2023-01-21T00:55:29.032Z,-0.27
2023-01-21T01:00:31.012Z,-0.25
2023-01-21T01:05:33.183Z,-0.36
2023-01-21T01:10:37.371Z,-0.36
2023-01-21T01:15:39.030Z,-0.22
2023-01-21T01:20:44.438Z,-0.08
2023-01-21T01:25:57.188Z,-0.29
2023-01-21T01:30:59.798Z,-0.48
2023-01-21T01:36:03.345Z,-0.59
2023-01-21T01:41:05.275Z,-0.57
2023-01-21T01:46:06.977Z,-0.68
2023-01-21T01:51:09.596Z,-0.54
2023-01-21T01:56:12.143Z,-0.59
2023-01-21T02:01:13.908Z,-0.56
2023-01-21T02:06:18.325Z,-0.71
2023-01-21T02:11:20.674Z,-0.56
2023-01-21T02:16:40.980Z,-0.61
2023-01-21T02:21:58.126Z,-0.43
2023-01-21T02:27:18.552Z,-0.40
2023-01-21T02:32:50.929Z,-0.66
2023-01-21T02:37:58.185Z,-0.60
2023-01-21T02:43:09.454Z,-0.70
2023-01-21T02:48:16.856Z,-0.71
2023-01-21T02:53:39.023Z,-0.72
2023-01-21T02:58:46.096Z,-0.71
2023-01-21T03:03:54.473Z,-0.70
2023-01-21T03:09:03.689Z,-0.83
2023-01-21T03:14:33.056Z,-0.75
2023-01-21T03:19:45.073Z,-0.87
2023-01-21T03:24:51.786Z,-0.88
2023-01-21T03:29:58.263Z,-0.86
2023-01-21T03:35:03.961Z,-0.94
2023-01-21T03:40:19.282Z,-1.00
2023-01-21T03:45:30.925Z,-0.93
2023-01-21T03:50:41.056Z,-0.88
2023-01-21T03:55:42.648Z,-1.05
2023-01-21T04:00:46.239Z,-0.95
2023-01-21T04:05:47.984Z,-0.96
2023-01-21T04:10:49.593Z,-0.83
2023-01-21T04:15:51.183Z,-0.88
2023-01-21T04:20:52.975Z,-0.83
2023-01-21T04:25:54.672Z,-0.91
2023-01-21T04:30:56.311Z,-1.05
2023-01-21T04:35:59.650Z,-1.17
2023-01-21T04:41:01.284Z,-1.06
2023-01-21T04:46:03.038Z,-0.97
2023-01-21T04:51:06.529Z,-0.80
2023-01-21T04:56:08.378Z,-0.96
2023-01-21T05:01:10.061Z,-0.94
2023-01-21T05:06:11.741Z,-1.00
2023-01-21T05:11:16.567Z,-1.11
2023-01-21T05:16:18.194Z,-1.02
2023-01-21T05:21:19.839Z,-0.97
2023-01-21T05:26:21.578Z,-0.84
2023-01-21T05:31:23.274Z,-0.77
2023-01-21T05:36:25.057Z,-0.99
2023-01-21T05:41:26.725Z,-0.95
2023-01-21T05:46:28.437Z,-1.00
2023-01-21T05:51:30.059Z,-1.07
2023-01-21T05:56:31.695Z,-0.96
2023-01-21T06:01:33.352Z,-0.99
2023-01-21T06:06:35.067Z,-0.87
2023-01-21T06:11:36.714Z,-1.13
2023-01-21T06:16:38.307Z,-1.05
2023-01-21T06:21:40.146Z,-0.88
2023-01-21T06:26:41.792Z,-1.09
2023-01-21T06:31:43.472Z,-1.11
2023-01-21T06:36:45.111Z,-1.17
2023-01-21T06:41:46.745Z,-1.16
2023-01-21T06:47:00.069Z,-1.06
2023-01-21T06:52:02.464Z,-1.13
2023-01-21T06:57:04.091Z,-0.97
2023-01-21T07:02:06.741Z,-1.00
2023-01-21T07:07:08.361Z,-0.97
2023-01-21T07:12:10.221Z,-1.01
2023-01-21T07:17:11.890Z,-0.82
2023-01-21T07:22:13.504Z,-0.81
2023-01-21T07:27:15.175Z,-0.79
2023-01-21T07:32:16.912Z,-0.97
2023-01-21T07:37:18.527Z,-0.90
2023-01-21T07:42:20.183Z,-0.90
2023-01-21T07:47:23.184Z,-0.82
2023-01-21T07:52:24.922Z,-0.73
2023-01-21T07:57:26.518Z,-0.81
2023-01-21T08:02:28.272Z,-0.85
2023-01-21T08:07:29.939Z,-0.82
2023-01-21T08:12:31.553Z,-0.58
2023-01-21T08:17:33.421Z,-0.59
2023-01-21T08:22:35.463Z,-0.71
2023-01-21T08:27:37.103Z,-0.57
2023-01-21T08:32:38.756Z,-0.41
2023-01-21T08:37:40.493Z,-0.51
2023-01-21T08:42:42.122Z,-0.62
2023-01-21T08:47:43.960Z,-0.59
2023-01-21T08:52:55.738Z,-0.52
2023-01-21T08:57:58.508Z,-0.44
2023-01-21T09:03:00.365Z,-0.44
2023-01-21T09:08:02.001Z,-0.41
2023-01-21T09:13:10.388Z,-0.47
2023-01-21T09:18:12.457Z,-0.28
2023-01-21T09:23:26.773Z,-0.29
2023-01-21T09:28:28.424Z,-0.27
2023-01-21T09:33:31.743Z,0.00
2023-01-21T09:38:34.129Z,-0.04
2023-01-21T09:43:41.739Z,0.00
2023-01-21T09:48:46.614Z,0.12
2023-01-21T09:53:52.380Z,0.22
2023-01-21T09:59:09.382Z,0.25
2023-01-21T10:04:48.151Z,0.26
2023-01-21T10:10:16.998Z,0.36
2023-01-21T10:15:24.628Z,0.35
2023-01-21T10:20:33.953Z,0.25
2023-01-21T10:25:37.517Z,0.19
2023-01-21T10:30:43.971Z,0.19
2023-01-21T10:36:05.232Z,0.38
2023-01-21T10:41:24.722Z,0.39
2023-01-21T10:46:39.421Z,0.67
2023-01-21T10:51:51.035Z,0.43
2023-01-21T10:57:40.165Z,0.60
2023-01-21T11:02:42.178Z,0.67
2023-01-21T11:07:44.514Z,0.59
2023-01-21T11:12:46.301Z,0.57
2023-01-21T11:17:51.927Z,0.48
2023-01-21T11:22:53.559Z,0.45
2023-01-21T11:27:55.203Z,0.67
2023-01-21T11:33:12.748Z,0.66
2023-01-21T11:38:34.089Z,0.77
2023-01-21T11:43:45.743Z,0.70
2023-01-21T11:48:48.606Z,0.67
2023-01-21T11:54:06.472Z,0.63
2023-01-21T11:59:24.296Z,0.59
2023-01-21T12:04:26.807Z,0.79
2023-01-21T12:09:29.231Z,0.63
2023-01-21T12:14:42.810Z,0.47
2023-01-21T12:20:05.960Z,0.53
2023-01-21T12:25:17.396Z,0.59
2023-01-21T12:30:19.149Z,0.64
2023-01-21T12:35:34.186Z,0.71
2023-01-21T12:41:00.563Z,0.80
2023-01-21T12:46:10.603Z,0.62
2023-01-21T12:51:22.087Z,0.89
2023-01-21T12:56:40.902Z,0.92
2023-01-21T13:01:55.757Z,0.91
2023-01-21T13:07:06.402Z,0.98
2023-01-21T13:12:25.792Z,1.12
2023-01-21T13:17:42.422Z,0.98
2023-01-21T13:23:08.165Z,1.25
2023-01-21T13:28:19.809Z,1.21
2023-01-21T13:33:25.064Z,1.65
2023-01-21T13:38:29.476Z,1.33
2023-01-21T13:44:00.960Z,1.27
2023-01-21T13:49:17.674Z,1.07
2023-01-21T13:55:05.625Z,1.10
2023-01-21T14:00:15.990Z,1.04
2023-01-21T14:05:41.684Z,0.79
2023-01-21T14:10:53.699Z,0.70
2023-01-21T14:16:17.359Z,0.65
2023-01-21T14:21:43.371Z,0.73
2023-01-21T14:27:08.069Z,0.54
2023-01-21T14:32:21.775Z,0.59
2023-01-21T14:37:35.065Z,0.48
2023-01-21T14:42:42.843Z,0.61
2023-01-21T14:47:49.679Z,0.58
2023-01-21T14:52:51.291Z,0.52
2023-01-21T14:57:54.736Z,0.52
2023-01-21T15:03:02.523Z,0.47
2023-01-21T15:08:12.778Z,0.39
2023-01-21T15:13:27.898Z,0.64
2023-01-21T15:18:41.465Z,0.59
2023-01-21T15:23:43.284Z,0.50
2023-01-21T15:28:55.926Z,0.49
2023-01-21T15:34:00.790Z,0.54
2023-01-21T15:39:24.184Z,0.51
2023-01-21T15:44:53.411Z,0.46
2023-01-21T15:50:05.585Z,0.42
2023-01-21T15:55:21.375Z,0.57
2023-01-21T16:00:32.946Z,0.53
2023-01-21T16:05:45.603Z,0.52
2023-01-21T16:11:02.300Z,0.47
2023-01-21T16:16:23.399Z,0.60
2023-01-21T16:21:40.295Z,0.50
2023-01-21T16:26:41.886Z,0.58
2023-01-21T16:32:00.738Z,0.57
2023-01-21T16:37:06.170Z,0.51
2023-01-21T16:42:22.705Z,0.44
2023-01-21T16:47:28.605Z,0.50
2023-01-21T16:52:30.662Z,0.55
2023-01-21T16:57:32.419Z,0.64
2023-01-21T17:02:34.364Z,0.58
2023-01-21T17:07:43.123Z,0.62
2023-01-21T17:13:05.992Z,0.60
2023-01-21T17:18:24.433Z,0.72
2023-01-21T17:23:30.232Z,0.57
2023-01-21T17:28:44.371Z,0.64
2023-01-21T17:33:59.743Z,0.60
2023-01-21T17:39:02.147Z,0.65
2023-01-21T17:44:07.191Z,0.67
2023-01-21T17:49:13.484Z,0.63
2023-01-21T17:54:21.557Z,0.68
2023-01-21T17:59:37.641Z,0.71
2023-01-21T18:04:39.828Z,0.63
2023-01-21T18:09:41.551Z,0.73
2023-01-21T18:14:43.415Z,0.70
2023-01-21T18:19:45.094Z,0.64
2023-01-21T18:24:46.754Z,0.67
2023-01-21T18:29:48.411Z,0.71
2023-01-21T18:34:50.149Z,0.81
2023-01-21T18:39:51.748Z,0.73
2023-01-21T18:44:53.356Z,0.75
2023-01-21T18:49:55.017Z,0.91
2023-01-21T18:54:58.180Z,0.73
2023-01-21T19:00:00.269Z,0.71
2023-01-21T19:05:01.916Z,0.79
2023-01-21T19:10:03.948Z,0.76
2023-01-21T19:15:08.102Z,0.67
2023-01-21T19:20:20.514Z,0.76
2023-01-21T19:25:25.168Z,0.70
2023-01-21T19:30:29.613Z,0.73
2023-01-21T19:35:35.660Z,0.76
2023-01-21T19:40:37.644Z,0.79
2023-01-21T19:45:39.265Z,0.79
2023-01-21T19:50:41.424Z,0.70
2023-01-21T19:55:45.512Z,0.79
2023-01-21T20:00:49.355Z,0.74
2023-01-21T20:05:59.299Z,0.71
2023-01-21T20:11:00.901Z,0.74
2023-01-21T20:16:14.226Z,0.81
2023-01-21T20:21:16.459Z,0.87
2023-01-21T20:26:24.515Z,0.65
2023-01-21T20:31:26.177Z,0.72
2023-01-21T20:36:28.159Z,0.80
2023-01-21T20:41:29.860Z,0.78
2023-01-21T20:46:31.675Z,0.88
2023-01-21T20:51:33.275Z,0.92
2023-01-21T20:56:35.124Z,0.77
2023-01-21T21:01:39.431Z,0.70
2023-01-21T21:06:41.055Z,0.79
2023-01-21T21:11:42.688Z,0.78
2023-01-21T21:16:44.405Z,0.71
2023-01-21T21:21:46.742Z,0.87
2023-01-21T21:26:48.356Z,0.85
2023-01-21T21:31:50.078Z,0.82
2023-01-21T21:36:51.783Z,0.77
2023-01-21T21:42:12.322Z,0.84
2023-01-21T21:47:33.588Z,0.78
2023-01-21T21:52:35.203Z,0.91
2023-01-21T21:57:36.819Z,0.88
2023-01-21T22:02:38.510Z,0.84
2023-01-21T22:07:40.216Z,0.86
2023-01-21T22:12:41.983Z,0.82
2023-01-21T22:17:43.625Z,0.89
2023-01-21T22:22:45.287Z,0.92
2023-01-21T22:27:46.909Z,0.82
2023-01-21T22:32:48.531Z,0.83
2023-01-21T22:37:50.228Z,0.82
2023-01-21T22:42:51.840Z,0.88
2023-01-21T22:47:53.437Z,0.96
2023-01-21T22:52:55.038Z,0.97
2023-01-21T22:57:56.638Z,0.86
2023-01-21T23:02:58.698Z,0.89
2023-01-21T23:13:06.998Z,1.02
2023-01-21T23:18:08.843Z,1.05
2023-01-21T23:23:12.199Z,0.90
2023-01-21T23:28:14.924Z,0.91
2023-01-21T23:33:16.508Z,0.91
2023-01-21T23:38:18.137Z,0.91
2023-01-21T23:43:24.170Z,0.90
2023-01-21T23:48:25.755Z,0.96
2023-01-21T23:53:27.351Z,0.84
2023-01-21T23:58:28.980Z,0.87
